Time,TemperatureF,DewpointF,PressureIn,WindDirection,WindDirectionDegrees,WindSpeedMPH,WindSpeedGustMPH,Humidity,HourlyPrecipIn,Conditions,Clouds,dailyrainin,SoftwareType,DateUTC
2013-03-02 00:08:00,-999.0,-99.9,30.00,North,-999,-999.0,-999.0,-999,-99.99,,,0.00,weatherlink.com 1.10,2013-03-02 05:08:00,
2013-03-02 00:23:00,-999.0,-99.9,30.00,North,-999,-999.0,-999.0,-999,-99.99,,,0.00,weatherlink.com 1.10,2013-03-02 05:23:00,
2013-03-02 00:38:00,-999.0,-99.9,30.00,North,-999,-999.0,-999.0,-999,-99.99,,,0.00,weatherlink.com 1.10,2013-03-02 05:38:00,
2013-03-02 00:53:00,-999.0,-99.9,30.00,North,-999,-999.0,-999.0,-999,-99.99,,,0.00,weatherlink.com 1.10,2013-03-02 05:53:00,
2013-03-02 01:08:00,-999.0,-99.9,29.99,North,-999,-999.0,-999.0,-999,-99.99,,,0.00,weatherlink.com 1.10,2013-03-02 06:08:00,
2013-03-02 01:23:00,-999.0,-99.9,29.99,North,-999,-999.0,-999.0,-999,-99.99,,,0.00,weatherlink.com 1.10,2013-03-02 06:23:00,
2013-03-02 01:38:00,-999.0,-99.9,29.99,North,-999,-999.0,-999.0,-999,-99.99,,,0.00,weatherlink.com 1.10,2013-03-02 06:38:00,
2013-03-02 01:53:00,-999.0,-99.9,29.99,North,-999,-999.0,-999.0,-999,-99.99,,,0.00,weatherlink.com 1.10,2013-03-02 06:53:00,
2013-03-02 02:08:00,-999.0,-99.9,29.99,North,-999,-999.0,-999.0,-999,-99.99,,,0.00,weatherlink.com 1.10,2013-03-02 07:08:00,
2013-03-02 02:23:00,-999.0,-99.9,29.98,North,-999,-999.0,-999.0,-999,-99.99,,,0.00,weatherlink.com 1.10,2013-03-02 07:23:00,
2013-03-02 02:38:00,-999.0,-99.9,29.98,North,-999,-999.0,-999.0,-999,-99.99,,,0.00,weatherlink.com 1.10,2013-03-02 07:38:00,
2013-03-02 02:53:00,-999.0,-99.9,29.98,North,-999,-999.0,-999.0,-999,-99.99,,,0.00,weatherlink.com 1.10,2013-03-02 07:53:00,
2013-03-02 03:08:00,-999.0,-99.9,29.99,North,-999,-999.0,-999.0,-999,-99.99,,,0.00,weatherlink.com 1.10,2013-03-02 08:08:00,
2013-03-02 03:23:00,-999.0,-99.9,29.98,North,-999,-999.0,-999.0,-999,-99.99,,,0.00,weatherlink.com 1.10,2013-03-02 08:23:00,
2013-03-02 03:38:00,-999.0,-99.9,29.98,North,-999,-999.0,-999.0,-999,-99.99,,,0.00,weatherlink.com 1.10,2013-03-02 08:38:00,
2013-03-02 03:53:00,-999.0,-99.9,29.98,North,-999,-999.0,-999.0,-999,-99.99,,,0.00,weatherlink.com 1.10,2013-03-02 08:53:00,
2013-03-02 04:08:00,-999.0,-99.9,29.98,North,-999,-999.0,-999.0,-999,-99.99,,,0.00,weatherlink.com 1.10,2013-03-02 09:08:00,
2013-03-02 04:23:00,-999.0,-99.9,29.98,North,-999,-999.0,-999.0,-999,-99.99,,,0.00,weatherlink.com 1.10,2013-03-02 09:23:00,
2013-03-02 04:38:00,-999.0,-99.9,29.98,North,-999,-999.0,-999.0,-999,-99.99,,,0.00,weatherlink.com 1.10,2013-03-02 09:38:00,
2013-03-02 04:53:00,-999.0,-99.9,29.98,North,-999,-999.0,-999.0,-999,-99.99,,,0.00,weatherlink.com 1.10,2013-03-02 09:53:00,
2013-03-02 05:09:00,-999.0,-99.9,29.97,North,-999,-999.0,-999.0,-999,-99.99,,,0.00,weatherlink.com 1.10,2013-03-02 10:09:00,
2013-03-02 05:23:00,-999.0,-99.9,29.96,North,-999,-999.0,-999.0,-999,-99.99,,,0.00,weatherlink.com 1.10,2013-03-02 10:23:00,
2013-03-02 05:39:00,-999.0,-99.9,29.96,North,-999,-999.0,-999.0,-999,-99.99,,,0.00,weatherlink.com 1.10,2013-03-02 10:39:00,
2013-03-02 05:53:00,-999.0,-99.9,29.96,North,-999,-999.0,-999.0,-999,-99.99,,,0.00,weatherlink.com 1.10,2013-03-02 10:53:00,
2013-03-02 06:08:00,-999.0,-99.9,29.96,North,-999,-999.0,-999.0,-999,-99.99,,,0.00,weatherlink.com 1.10,2013-03-02 11:08:00,
2013-03-02 06:23:00,-999.0,-99.9,29.97,North,-999,-999.0,-999.0,-999,-99.99,,,0.00,weatherlink.com 1.10,2013-03-02 11:23:00,
2013-03-02 06:38:00,-999.0,-99.9,29.97,North,-999,-999.0,-999.0,-999,-99.99,,,0.00,weatherlink.com 1.10,2013-03-02 11:38:00,
2013-03-02 06:53:00,-999.0,-99.9,29.97,North,-999,-999.0,-999.0,-999,-99.99,,,0.00,weatherlink.com 1.10,2013-03-02 11:53:00,
2013-03-02 07:08:00,-999.0,-99.9,29.97,North,-999,-999.0,-999.0,-999,-99.99,,,0.00,weatherlink.com 1.10,2013-03-02 12:08:00,
2013-03-02 07:23:00,-999.0,-99.9,29.98,North,-999,-999.0,-999.0,-999,-99.99,,,0.00,weatherlink.com 1.10,2013-03-02 12:23:00,
2013-03-02 07:38:00,51.9,42.0,30.00,NE,38,6.0,-999.0,69,-99.99,,,0.00,weatherlink.com 1.10,2013-03-02 12:38:00,
2013-03-02 07:53:00,-999.0,-99.9,30.02,North,-999,-999.0,-999.0,-999,-99.99,,,0.00,weatherlink.com 1.10,2013-03-02 12:53:00,
2013-03-02 08:08:00,-999.0,-99.9,30.02,North,-999,-999.0,-999.0,-999,-99.99,,,0.00,weatherlink.com 1.10,2013-03-02 13:08:00,
2013-03-02 08:23:00,-999.0,-99.9,30.01,North,-999,-999.0,-999.0,-999,-99.99,,,0.00,weatherlink.com 1.10,2013-03-02 13:23:00,
2013-03-02 08:38:00,-999.0,-99.9,30.02,North,-999,-999.0,-999.0,-999,-99.99,,,0.00,weatherlink.com 1.10,2013-03-02 13:38:00,
2013-03-02 08:53:00,-999.0,-99.9,30.01,North,-999,-999.0,-999.0,-999,-99.99,,,0.00,weatherlink.com 1.10,2013-03-02 13:53:00,
2013-03-02 09:08:00,51.3,44.0,30.02,ENE,61,4.0,-999.0,75,-99.99,,,0.00,weatherlink.com 1.10,2013-03-02 14:08:00,
2013-03-02 09:23:00,51.5,43.0,30.02,NE,56,4.0,-999.0,74,-99.99,,,0.00,weatherlink.com 1.10,2013-03-02 14:23:00,
2013-03-02 09:38:00,52.3,44.0,30.01,NE,56,5.0,-999.0,73,-99.99,,,0.00,weatherlink.com 1.10,2013-03-02 14:38:00,
2013-03-02 09:53:00,52.4,45.0,30.03,NNE,25,13.0,-999.0,75,-99.99,,,0.00,weatherlink.com 1.10,2013-03-02 14:53:00,
2013-03-02 10:08:00,53.0,41.0,30.03,NE,39,10.0,-999.0,65,-99.99,,,0.00,weatherlink.com 1.10,2013-03-02 15:08:00,
2013-03-02 10:23:00,52.9,42.0,30.04,North,11,4.0,-999.0,66,-99.99,,,0.00,weatherlink.com 1.10,2013-03-02 15:23:00,
2013-03-02 10:38:00,53.3,43.0,30.05,NE,34,7.0,-999.0,69,-99.99,,,0.00,weatherlink.com 1.10,2013-03-02 15:38:00,
2013-03-02 10:53:00,53.7,46.0,30.05,NNW,335,7.0,-999.0,75,-99.99,,,0.00,weatherlink.com 1.10,2013-03-02 15:53:00,
2013-03-02 11:08:00,55.3,46.0,30.05,NNW,331,9.0,-999.0,72,-99.99,,,0.00,weatherlink.com 1.10,2013-03-02 16:08:00,
2013-03-02 11:23:00,55.7,45.0,30.05,North,355,11.0,-999.0,67,-99.99,,,0.00,weatherlink.com 1.10,2013-03-02 16:23:00,
2013-03-02 11:38:00,56.2,45.0,30.05,NNW,333,7.0,-999.0,66,-99.99,,,0.00,weatherlink.com 1.10,2013-03-02 16:38:00,
2013-03-02 11:53:00,56.3,45.0,30.05,North,350,2.0,-999.0,66,-99.99,,,0.00,weatherlink.com 1.10,2013-03-02 16:53:00,
2013-03-02 12:08:00,57.3,43.0,30.04,NW,323,3.0,-999.0,59,-99.99,,,0.00,weatherlink.com 1.10,2013-03-02 17:08:00,
2013-03-02 12:23:00,56.9,45.0,30.03,NNW,329,8.0,-999.0,65,-99.99,,,0.00,weatherlink.com 1.10,2013-03-02 17:23:00,
2013-03-02 12:38:00,56.7,45.0,30.03,NW,311,4.0,-999.0,66,-99.99,,,0.00,weatherlink.com 1.10,2013-03-02 17:38:00,
2013-03-02 12:53:00,56.9,45.0,30.02,North,355,9.0,-999.0,64,-99.99,,,0.00,weatherlink.com 1.10,2013-03-02 17:53:00,
2013-03-02 13:08:00,56.7,45.0,30.02,NW,326,14.0,-999.0,66,-99.99,,,0.00,weatherlink.com 1.10,2013-03-02 18:08:00,
2013-03-02 13:23:00,56.0,45.0,30.00,NNW,346,10.0,-999.0,67,-99.99,,,0.00,weatherlink.com 1.10,2013-03-02 18:23:00,
2013-03-02 13:38:00,56.8,45.0,30.00,NW,321,10.0,-999.0,66,-99.99,,,0.00,weatherlink.com 1.10,2013-03-02 18:38:00,
2013-03-02 13:53:00,57.2,44.0,29.99,NW,309,12.0,-999.0,62,-99.99,,,0.00,weatherlink.com 1.10,2013-03-02 18:53:00,
2013-03-02 14:08:00,57.5,44.0,29.99,NNW,338,5.0,-999.0,62,-99.99,,,0.00,weatherlink.com 1.10,2013-03-02 19:08:00,
2013-03-02 14:23:00,56.6,45.0,29.97,NNW,344,9.0,-999.0,66,-99.99,,,0.00,weatherlink.com 1.10,2013-03-02 19:23:00,
2013-03-02 14:38:00,56.9,45.0,29.97,North,355,11.0,-999.0,65,-99.99,,,0.00,weatherlink.com 1.10,2013-03-02 19:38:00,
2013-03-02 14:53:00,57.1,45.0,29.97,NNW,336,9.0,-999.0,64,-99.99,,,0.00,weatherlink.com 1.10,2013-03-02 19:53:00,
2013-03-02 15:09:00,56.7,44.0,29.97,NNW,340,6.0,-999.0,62,-99.99,,,0.00,weatherlink.com 1.10,2013-03-02 20:09:00,
2013-03-02 15:23:00,56.9,45.0,29.97,NW,323,3.0,-999.0,64,-99.99,,,0.00,weatherlink.com 1.10,2013-03-02 20:23:00,
2013-03-02 15:38:00,57.0,43.0,29.97,North,351,4.0,-999.0,59,-99.99,,,0.00,weatherlink.com 1.10,2013-03-02 20:38:00,
2013-03-02 15:53:00,56.6,44.0,29.98,NNW,340,12.0,-999.0,62,-99.99,,,0.00,weatherlink.com 1.10,2013-03-02 20:53:00,
2013-03-02 16:08:00,56.4,43.0,29.97,NW,317,3.0,-999.0,62,-99.99,,,0.00,weatherlink.com 1.10,2013-03-02 21:08:00,
2013-03-02 16:23:00,56.7,45.0,29.96,North,5,12.0,-999.0,64,-99.99,,,0.00,weatherlink.com 1.10,2013-03-02 21:23:00,
2013-03-02 16:39:00,56.4,44.0,29.96,NW,313,6.0,-999.0,64,-99.99,,,0.00,weatherlink.com 1.10,2013-03-02 21:39:00,
2013-03-02 16:53:00,55.9,45.0,29.96,NW,319,3.0,-999.0,66,-99.99,,,0.00,weatherlink.com 1.10,2013-03-02 21:53:00,
2013-03-02 17:08:00,55.7,44.0,29.97,NW,318,6.0,-999.0,64,-99.99,,,0.00,weatherlink.com 1.10,2013-03-02 22:08:00,
2013-03-02 17:23:00,55.7,44.0,29.97,NNW,327,12.0,-999.0,66,-99.99,,,0.00,weatherlink.com 1.10,2013-03-02 22:23:00,
2013-03-02 17:38:00,55.6,44.0,29.96,North,360,15.0,-999.0,65,-99.99,,,0.00,weatherlink.com 1.10,2013-03-02 22:38:00,
2013-03-02 17:53:00,55.5,45.0,29.96,NNW,330,4.0,-999.0,68,-99.99,,,0.00,weatherlink.com 1.10,2013-03-02 22:53:00,
2013-03-02 18:08:00,55.5,45.0,29.97,NNW,337,5.0,-999.0,67,-99.99,,,0.00,weatherlink.com 1.10,2013-03-02 23:08:00,
2013-03-02 18:23:00,-999.0,-99.9,29.97,North,-999,-999.0,-999.0,-999,-99.99,,,0.00,weatherlink.com 1.10,2013-03-02 23:23:00,
2013-03-02 18:38:00,-999.0,-99.9,29.97,North,-999,-999.0,-999.0,-999,-99.99,,,0.00,weatherlink.com 1.10,2013-03-02 23:38:00,
2013-03-02 18:53:00,-999.0,-99.9,29.97,North,-999,-999.0,-999.0,-999,-99.99,,,0.00,weatherlink.com 1.10,2013-03-02 23:53:00,
2013-03-02 19:08:00,-999.0,-99.9,29.97,North,-999,-999.0,-999.0,-999,-99.99,,,0.00,weatherlink.com 1.10,2013-03-03 00:08:00,
2013-03-02 19:23:00,-999.0,-99.9,29.98,North,-999,-999.0,-999.0,-999,-99.99,,,0.00,weatherlink.com 1.10,2013-03-03 00:23:00,
2013-03-02 19:38:00,-999.0,-99.9,29.98,North,-999,-999.0,-999.0,-999,-99.99,,,0.00,weatherlink.com 1.10,2013-03-03 00:38:00,
2013-03-02 19:53:00,-999.0,-99.9,29.98,North,-999,-999.0,-999.0,-999,-99.99,,,0.00,weatherlink.com 1.10,2013-03-03 00:53:00,
2013-03-02 20:08:00,-999.0,-99.9,29.99,North,-999,-999.0,-999.0,-999,-99.99,,,0.00,weatherlink.com 1.10,2013-03-03 01:08:00,
2013-03-02 20:24:00,-999.0,-99.9,29.98,North,-999,-999.0,-999.0,-999,-99.99,,,0.00,weatherlink.com 1.10,2013-03-03 01:24:00,
2013-03-02 20:38:00,-999.0,-99.9,29.98,North,-999,-999.0,-999.0,-999,-99.99,,,0.00,weatherlink.com 1.10,2013-03-03 01:38:00,
2013-03-02 20:53:00,-999.0,-99.9,29.99,North,-999,-999.0,-999.0,-999,-99.99,,,0.00,weatherlink.com 1.10,2013-03-03 01:53:00,
2013-03-02 21:08:00,-999.0,-99.9,29.98,North,-999,-999.0,-999.0,-999,-99.99,,,0.00,weatherlink.com 1.10,2013-03-03 02:08:00,
2013-03-02 21:23:00,-999.0,-99.9,29.99,North,-999,-999.0,-999.0,-999,-99.99,,,0.00,weatherlink.com 1.10,2013-03-03 02:23:00,
2013-03-02 21:39:00,-999.0,-99.9,29.98,North,-999,-999.0,-999.0,-999,-99.99,,,0.00,weatherlink.com 1.10,2013-03-03 02:39:00,
2013-03-02 21:54:00,-999.0,-99.9,29.98,North,-999,-999.0,-999.0,-999,-99.99,,,0.00,weatherlink.com 1.10,2013-03-03 02:54:00,
2013-03-02 22:08:00,-999.0,-99.9,29.98,North,-999,-999.0,-999.0,-999,-99.99,,,0.00,weatherlink.com 1.10,2013-03-03 03:08:00,
2013-03-02 22:24:00,-999.0,-99.9,29.98,North,-999,-999.0,-999.0,-999,-99.99,,,0.00,weatherlink.com 1.10,2013-03-03 03:24:00,
2013-03-02 22:39:00,-999.0,-99.9,29.99,North,-999,-999.0,-999.0,-999,-99.99,,,0.00,weatherlink.com 1.10,2013-03-03 03:39:00,
2013-03-02 22:54:00,-999.0,-99.9,29.99,North,-999,-999.0,-999.0,-999,-99.99,,,0.00,weatherlink.com 1.10,2013-03-03 03:54:00,
2013-03-02 23:09:00,-999.0,-99.9,29.98,North,-999,-999.0,-999.0,-999,-99.99,,,0.00,weatherlink.com 1.10,2013-03-03 04:09:00,
2013-03-02 23:24:00,-999.0,-99.9,29.98,North,-999,-999.0,-999.0,-999,-99.99,,,0.00,weatherlink.com 1.10,2013-03-03 04:24:00,
2013-03-02 23:39:00,-999.0,-99.9,29.97,North,-999,-999.0,-999.0,-999,-99.99,,,0.00,weatherlink.com 1.10,2013-03-03 04:39:00,
2013-03-02 23:54:00,-999.0,-99.9,29.98,North,-999,-999.0,-999.0,-999,-99.99,,,0.00,weatherlink.com 1.10,2013-03-03 04:54:00,